x

9431647 - Port Orford, Or (poro3) Weather Station

10:54pm - Mon 25th Jul 2016 All times are PDT. -7 hours from GMT.

  • Wind
    11mph, 22mph gusts
  • Sea Temp 47°f
  • Air Temp 60°f
  • Sea Pressure 1019.2mb
  • 9431647 - Port Orford, Or
  • 9431647 - Port Orford, Or

More Historic Weather Station data

Upgrade to MSW Pro to gain access to the past 30 days of data for over 8000 Wavebouys and Weather Stations around the globe.

Join Pro

Comparision Forecast

View Surf forecast
   
Mon 07/25 10:54pm 11 22 mph 1019.2mb 47f 60f
10:48pm 14 18 mph 1019.3mb 47f -
10:42pm 11 20 mph 1019.2mb 47f -
10:36pm 11 20 mph 1019.1mb 47f -
10:30pm 9 20 mph 1019.1mb 47f 61f
10:24pm 11 21 mph 1019.1mb 47f 61f
10:18pm 13 20 mph 1019mb 47f 61f
10:12pm 15 25 mph 1019mb 47f 61f
10:06pm 11 20 mph 1019mb 47f 61f
10:00pm 11 20 mph 1019mb 47f 61f
9:54pm 10 23 mph 1019mb 47f 61f
9:48pm 14 22 mph 1018.9mb 47f 61f
9:42pm 14 21 mph 1018.9mb 47f 61f
9:36pm 11 22 mph 1018.9mb 47f 61f
9:30pm 11 16 mph 1018.9mb 47f 61f
9:24pm 10 20 mph 1018.8mb 47f 61f
9:18pm 13 18 mph 1018.7mb 47f 61f
9:12pm 11 24 mph 1018.7mb 47f 61f
9:06pm 13 23 mph 1018.7mb 47f 61f
9:00pm 14 21 mph 1018.5mb 47f 61f
8:54pm 13 21 mph 1018.5mb 47f 61f
8:48pm 14 24 mph 1018.5mb 47f 61f
8:42pm 14 24 mph 1018.4mb 47f 61f
8:36pm 13 23 mph 1018.5mb 47f 61f
8:30pm 15 24 mph 1018.4mb 47f 61f
8:24pm 16 23 mph 1018.3mb 47f 61f
8:18pm 14 26 mph 1018.1mb 47f 62f
8:12pm 16 25 mph 1018mb 47f 62f
8:06pm 16 29 mph 1017.9mb 47f 62f
8:00pm 18 28 mph - 47f 62f
7:54pm 17 25 mph - 47f 62f
7:48pm 17 24 mph 1017.8mb - -
7:42pm 14 26 mph 1017.9mb - -
7:36pm 16 23 mph 1017.9mb - -
7:30pm 16 23 mph - 47f 63f
7:24pm 16 28 mph - 47f 63f
7:18pm 18 28 mph - 47f 63f
7:12pm 14 22 mph - 47f 63f
7:06pm 14 22 mph - 47f 64f
7:00pm 16 23 mph - 47f 64f
6:54pm 14 28 mph - 47f 64f
6:48pm 15 25 mph 1017.5mb 47f -
6:42pm 16 26 mph 1017.7mb 47f -
6:36pm 21 28 mph 1017.6mb 47f -
6:30pm 17 24 mph - 47f -
6:24pm 20 28 mph - 47f -
6:18pm 16 28 mph - 47f 64f
6:12pm 14 26 mph - 47f 64f
6:06pm 15 25 mph - 47f 64f
6:00pm 15 23 mph - 47f 64f
5:54pm 15 24 mph - 47f 65f
5:48pm 15 28 mph - - -
5:42pm 17 24 mph - - -
5:36pm 16 26 mph - - -
5:30pm 18 31 mph - 47f 64f
5:24pm 21 31 mph - 47f 64f
5:18pm 21 31 mph - 47f -
5:12pm 20 30 mph - 47f -
5:06pm 20 29 mph - 46f -
5:00pm  -  mph - 46f 65f
4:54pm  -  mph - 47f 65f
4:48pm 15 24 mph 1017.8mb - -
4:42pm 17 29 mph 1017.9mb - -
4:36pm 16 25 mph 1017.6mb - -
4:30pm  -  mph - 47f -
4:24pm  -  mph - 47f -
4:18pm 20 31 mph 1017.6mb 47f -
4:12pm 18 31 mph 1017.7mb 47f -
4:06pm 22 29 mph 1017.7mb 47f -
4:00pm  -  mph - 48f 66f
3:54pm  -  mph - 48f 66f
3:48pm 20 28 mph 1017.7mb 48f -
3:42pm 18 30 mph 1017.8mb 48f -
3:36pm 16 25 mph 1017.9mb 48f -
3:30pm 17 29 mph 1017.9mb 47f -
3:24pm 20 31 mph 1018mb 47f -
3:18pm 18 33 mph - 47f 66f
3:12pm 21 36 mph - 47f 66f
3:06pm 21 28 mph - 47f 66f
3:00pm  -  mph - 47f -
2:54pm  -  mph - 47f -
2:48pm  -  mph - 47f 68f
2:42pm  -  mph - 47f 68f
2:36pm  -  mph - 47f 68f
2:30pm 14 25 mph 1017.6mb 47f 68f
2:24pm 14 22 mph 1017.8mb 47f 68f
2:18pm 17 26 mph 1017.9mb 47f 67f
2:12pm 15 23 mph 1017.9mb 47f 68f
2:06pm 16 28 mph 1018mb 48f 68f
2:00pm 15 28 mph 1017.9mb 48f 67f
1:54pm 17 26 mph 1018.1mb 48f 67f
1:48pm 17 26 mph 1018.1mb 48f 67f
1:42pm 15 28 mph 1018.3mb 48f 67f
1:36pm 16 24 mph 1018.4mb 48f 67f
1:30pm 18 28 mph 1018.3mb 49f 66f
1:24pm 14 23 mph 1018.4mb 49f 67f
1:18pm 16 24 mph 1018.6mb 49f 66f
1:12pm 16 25 mph 1018.5mb 49f 66f
1:06pm 14 29 mph 1018.5mb 49f 67f
1:00pm 20 29 mph 1018.6mb 48f 65f
12:54pm 22 28 mph 1018.6mb 48f 65f
12:48pm 24 30 mph 1018.7mb 48f 65f
12:42pm 22 32 mph 1018.7mb 48f 65f
12:36pm 20 29 mph 1018.6mb 48f 65f
12:30pm 20 30 mph 1018.4mb 48f 65f
12:24pm 20 36 mph 1018.6mb 48f 64f
12:18pm 21 29 mph 1018.5mb 48f 65f
12:12pm 21 28 mph 1018.6mb 48f 64f
12:06pm 18 31 mph 1018.6mb 48f 65f
12:00pm 20 29 mph 1018.6mb 48f 64f
11:54am 17 24 mph 1018.5mb 48f 65f
11:48am 18 26 mph 1018.6mb 48f 64f
11:42am 15 29 mph 1018.5mb 48f 65f
11:36am 16 25 mph 1018.6mb 48f 64f
11:30am 23 29 mph 1018.8mb 48f 64f
11:24am 20 28 mph 1018.6mb 48f 64f
11:18am 22 28 mph 1018.7mb 48f 63f
11:12am 15 28 mph 1018.6mb 48f 64f
11:06am 20 26 mph 1018.6mb 48f 63f
11:00am 20 28 mph 1018.4mb 48f 64f
10:54am 14 23 mph 1018.5mb 48f 64f
10:48am 18 26 mph 1018.5mb 47f 63f
10:42am 18 23 mph 1018.5mb 48f 63f
10:36am 17 24 mph 1018.5mb 47f 63f
10:30am 16 30 mph 1018.4mb 47f 63f
10:24am 18 26 mph 1018.5mb 47f 62f
10:18am 18 26 mph 1018.4mb 47f 62f
10:12am 16 24 mph 1018.4mb 47f 62f
10:06am 16 28 mph 1018.4mb 47f 62f
10:00am 17 29 mph 1018.4mb 47f 62f
9:54am 18 26 mph 1018.5mb 47f 62f
9:48am 15 22 mph 1018.4mb 47f 62f
9:42am 14 24 mph 1018.4mb 47f 62f
9:36am 17 23 mph 1018.5mb 47f 62f
9:30am 15 20 mph 1018.5mb 47f 62f
9:24am 15 22 mph 1018.5mb 48f 62f
9:18am 16 22 mph 1018.4mb 48f 62f
9:12am 16 22 mph 1018.3mb 48f 62f
9:06am 11 24 mph 1018.3mb 47f 62f
9:00am 17 23 mph 1018.3mb 47f 62f
8:54am 14 18 mph 1018.3mb 47f 61f
8:48am 13 20 mph 1018.3mb 47f 61f
8:42am 11 18 mph 1018.3mb 47f 61f
8:36am 11 18 mph 1018.3mb 47f 61f
8:30am 9 20 mph 1018.3mb 47f 61f
8:24am 11 15 mph 1018.4mb 47f 61f
8:18am 13 18 mph 1018.4mb 47f 61f
8:12am 13 20 mph 1018.3mb 47f 61f
8:06am 9 17 mph 1018.3mb 47f 61f
8:00am 13 21 mph 1018.3mb 47f 61f
7:54am 10 17 mph 1018.3mb 47f 60f
7:48am 10 16 mph 1018.2mb 47f 60f
7:42am 13 17 mph 1018.2mb 47f 60f
7:36am 13 16 mph 1018.1mb 47f 60f
7:30am 13 18 mph 1018.1mb 47f 60f
7:24am 13 17 mph 1018.1mb 47f 60f
7:18am 13 20 mph 1018.1mb 47f 60f
7:12am 11 15 mph 1018.2mb 47f 60f
7:06am 10 16 mph 1018.2mb 47f 60f
7:00am 10 16 mph 1018.3mb 47f 60f
6:54am 11 14 mph 1018.3mb 47f 60f
6:48am 8 14 mph 1018.2mb 47f 60f
6:42am 10 16 mph 1018.3mb 47f 60f
6:36am 14 18 mph 1018.2mb 47f 60f
6:30am 13 20 mph 1018.2mb 47f 60f
6:24am 10 17 mph 1018.2mb 47f 60f
6:18am 13 18 mph 1018.1mb 47f 60f
6:12am 13 21 mph 1018.1mb 47f 60f
6:06am 16 23 mph 1018.1mb 47f 60f
6:00am 15 21 mph 1018.1mb 47f 60f
5:54am 13 17 mph 1018.1mb 47f 60f
5:48am 14 20 mph 1018.1mb 47f 60f
5:42am 14 18 mph 1018.1mb 47f 60f
5:36am 15 21 mph 1018.1mb 47f 60f
5:30am 15 21 mph 1018.1mb 47f 60f
5:24am 13 20 mph 1018mb 47f 60f
5:18am 16 22 mph 1018mb 47f 60f
5:12am 11 18 mph 1018mb 47f 60f
5:06am 14 20 mph 1018mb 47f 60f
5:00am 14 26 mph 1017.9mb 47f 60f
4:54am 11 20 mph 1017.9mb 47f 60f
4:48am 14 22 mph 1017.9mb 47f 60f
4:42am 13 20 mph 1017.9mb 47f 60f
4:36am 13 17 mph 1017.9mb 47f 60f
4:30am 11 18 mph 1018mb 47f 60f
4:24am 16 22 mph 1018mb 47f 60f
4:18am 13 18 mph 1018mb 47f 60f
4:12am 14 22 mph 1018mb 47f 60f
4:06am 14 20 mph 1017.9mb 47f 60f
4:00am 10 17 mph 1017.9mb 47f 60f
3:54am 11 20 mph 1017.8mb 47f 60f
3:48am 14 23 mph 1017.8mb 47f 60f
3:42am 14 21 mph 1017.8mb 47f 60f
3:36am 16 22 mph 1017.8mb 47f 60f
3:30am 14 20 mph 1017.8mb 47f 60f
3:24am 14 21 mph 1017.7mb 47f 60f
3:18am 11 20 mph 1017.7mb 47f 60f
3:12am 10 17 mph 1017.7mb 47f 60f
3:06am 14 20 mph 1017.7mb 47f 60f
3:00am 16 20 mph 1017.7mb 47f 61f
2:54am 13 20 mph 1017.7mb 47f 60f
2:48am 15 20 mph 1017.7mb 47f 61f
2:42am 14 22 mph 1017.7mb 47f 60f
2:36am 15 22 mph 1017.7mb 47f 61f
2:30am 14 21 mph 1017.7mb 47f 61f
2:24am 14 25 mph 1017.7mb 47f 61f
2:18am 15 24 mph 1017.7mb 47f 61f
2:12am 17 23 mph 1017.7mb 47f 61f
2:06am 17 23 mph 1017.7mb 47f 61f
2:00am 17 23 mph 1017.7mb 47f 61f
1:54am 18 23 mph 1017.7mb 47f 61f
1:48am 18 23 mph 1017.7mb 47f 61f
1:42am 22 29 mph 1017.7mb 47f 61f
1:36am 17 26 mph 1017.6mb 47f 61f
1:30am 16 26 mph 1017.6mb 47f 61f
1:24am 16 23 mph 1017.5mb 47f 61f
1:18am 18 25 mph 1017.6mb 47f 61f
1:12am 17 26 mph 1017.6mb 47f 61f
1:06am 16 26 mph 1017.5mb 47f 61f
1:00am 20 26 mph 1017.6mb 47f 61f
12:54am 17 24 mph 1017.7mb 48f 61f
12:48am 17 25 mph 1017.6mb 47f 61f
12:42am 14 26 mph 1017.6mb 47f 61f
12:36am 21 25 mph 1017.6mb 47f 61f
12:30am 18 28 mph 1017.6mb 47f 61f
12:24am 18 23 mph 1017.5mb 47f 61f
12:18am 20 25 mph 1017.6mb 47f 61f
12:12am 16 23 mph 1017.5mb 48f 61f
12:06am 16 23 mph 1017.4mb 48f 61f
12:00am 17 22 mph 1017.4mb 48f 61f
Sun 07/24 11:54pm 16 26 mph 1017.3mb 48f 61f
11:48pm 15 21 mph 1017.4mb 48f 61f
11:42pm 15 23 mph 1017.3mb 48f 61f
11:36pm 17 23 mph 1017.4mb 48f 61f
11:30pm 17 28 mph 1017.3mb 48f 61f
11:24pm 18 23 mph 1017.3mb 48f 61f
11:18pm 16 25 mph 1017.2mb 48f 61f
11:12pm 16 24 mph 1017.4mb 48f 61f
11:06pm 17 24 mph 1017.4mb 48f 61f
11:00pm 17 28 mph 1017.4mb 48f 61f
10:54pm 17 22 mph 1017.4mb 48f 61f
10:48pm 17 24 mph 1017.4mb - -
10:42pm 15 23 mph 1017.3mb - -
10:36pm 17 24 mph 1017.3mb - -
10:30pm 17 26 mph 1017.2mb 48f 61f
10:24pm 17 26 mph 1017.2mb 48f 61f
10:18pm 16 25 mph 1017.1mb 48f 61f
10:12pm 18 24 mph 1017.2mb 48f 61f
10:06pm 17 23 mph 1017.1mb 48f 61f
10:00pm 17 24 mph 1017.1mb 48f 61f
9:54pm 17 25 mph 1016.9mb 48f 61f
9:48pm 17 26 mph 1016.8mb 48f 61f
9:42pm 21 28 mph 1016.8mb 48f 61f
9:36pm 16 25 mph 1016.8mb 48f 61f
9:30pm 18 28 mph 1016.7mb 48f 61f
9:24pm 23 31 mph 1016.8mb 48f 61f
9:18pm 22 30 mph 1016.7mb 48f 61f
9:12pm 16 24 mph 1016.6mb 49f 61f
9:06pm 18 29 mph 1016.7mb 49f 62f
9:00pm 15 29 mph 1016.7mb 49f 62f
8:54pm 15 24 mph 1016.6mb 49f 62f
8:48pm 20 26 mph 1016.6mb 48f 62f
8:42pm 20 32 mph 1016.7mb 48f 62f
8:36pm 15 23 mph 1016.6mb 48f 62f
8:30pm 18 29 mph 1016.5mb 48f 62f
8:24pm 14 22 mph 1016.5mb 48f 62f
8:18pm 13 21 mph - 48f 62f
8:12pm 15 23 mph - 48f 62f
8:06pm 14 28 mph - 48f 62f
8:00pm  -  mph 1016.4mb 48f -
7:54pm  -  mph 1016.4mb 48f -
7:48pm 16 23 mph 1016.3mb 48f -
7:42pm 14 24 mph 1016.3mb 48f -
7:36pm 16 25 mph 1016.3mb 48f -
7:30pm 14 25 mph - 48f -
7:24pm 17 25 mph - 48f -
7:18pm 17 32 mph 1016.1mb 48f 62f
7:12pm 18 31 mph 1016.1mb 48f 62f
7:06pm 16 29 mph 1016.1mb 48f 62f
7:00pm  -  mph - 48f 63f
6:54pm  -  mph - 48f 63f
6:48pm 15 30 mph - 48f -
6:42pm 16 29 mph - 48f -
6:36pm 14 32 mph - 48f -
6:30pm 20 28 mph 1015.9mb 48f -
6:24pm 16 29 mph 1015.9mb 48f -
6:18pm 18 34 mph 1015.9mb 48f -
6:12pm 16 26 mph 1015.9mb 48f -
6:06pm 21 31 mph 1015.8mb 48f -
6:00pm 15 29 mph - 48f 64f
5:54pm 16 29 mph - 48f 64f
5:48pm 20 34 mph 1015.7mb 48f -
5:42pm 20 30 mph 1015.8mb 48f -
5:36pm 17 26 mph 1015.8mb 48f -
5:30pm 16 25 mph - - -
5:24pm 16 29 mph - - -
5:18pm 15 29 mph - 48f 65f
5:12pm 21 31 mph - 48f 64f
5:06pm 17 30 mph - 48f 65f
5:00pm  -  mph - 48f 65f
4:54pm  -  mph - 48f 65f
4:48pm 17 33 mph - - -
4:42pm 22 29 mph - - -
4:36pm 16 30 mph - - -
4:30pm 16 30 mph - 48f -
4:24pm 17 31 mph - 48f -
4:18pm 21 32 mph - 48f -
4:12pm 22 30 mph - 48f -
4:06pm 18 31 mph - 48f -
4:00pm  -  mph - 48f 64f
3:54pm  -  mph - 48f 65f
3:48pm 14 28 mph - - -
3:42pm 24 34 mph - - -
3:36pm 22 32 mph - - -
3:30pm 20 29 mph - 48f -
3:24pm 20 32 mph - 48f -
3:00pm  -  mph - 48f 65f
2:54pm  -  mph - 48f 65f
2:48pm 23 36 mph - 48f 65f
2:42pm 22 34 mph - 48f 64f
2:36pm 18 33 mph - 48f 65f
2:30pm 17 28 mph 1016mb 48f 65f
2:24pm 20 31 mph 1015.9mb 48f 65f
2:18pm 21 31 mph 1016.1mb 48f 65f
2:12pm 21 32 mph 1016.1mb 48f 65f
2:06pm 20 29 mph 1016mb 48f 65f
2:00pm 18 29 mph 1016.1mb 48f 65f
1:54pm 20 32 mph 1015.9mb 48f 65f
1:48pm 21 32 mph 1016.1mb 48f 64f
1:42pm 23 33 mph 1016mb 48f 64f
1:36pm 17 30 mph 1015.9mb 48f 65f
1:30pm 18 29 mph 1015.9mb 48f 65f
1:24pm 20 30 mph 1015.8mb 48f 64f
1:18pm 22 32 mph 1015.9mb 48f 64f
1:12pm 18 29 mph 1015.9mb 48f 65f
1:06pm 22 34 mph 1016mb 48f 64f
1:00pm 20 33 mph 1016.2mb 48f 64f
12:54pm 17 28 mph 1016.1mb 47f 65f
12:48pm 18 29 mph 1016mb 47f 64f
12:42pm 15 23 mph 1016.1mb 47f 65f
12:36pm 13 24 mph 1016.1mb 47f 65f
12:30pm 18 28 mph 1016.1mb 47f 64f
12:24pm 17 25 mph 1016.1mb 47f 64f
12:18pm 17 26 mph 1016.1mb 48f 64f
12:12pm 18 32 mph 1016.2mb 48f 64f
12:06pm 22 31 mph 1016.2mb 48f 64f
12:00pm 20 32 mph 1016.3mb 48f 64f
11:54am 22 32 mph 1016.3mb 48f 64f
11:48am 16 26 mph 1016.4mb 48f 64f
11:42am 18 28 mph 1016.4mb 48f 64f
11:36am 16 31 mph 1016.4mb 48f 64f
11:30am 18 31 mph 1016.3mb 48f 63f
11:24am 21 31 mph 1016.3mb 48f 63f
11:18am 22 30 mph 1016.3mb 48f 63f
11:12am 18 29 mph 1016.4mb 48f 63f
11:06am 17 28 mph 1016.4mb 48f 63f
11:00am 16 24 mph 1016.3mb 48f 64f
10:54am 17 26 mph 1016.3mb 48f 63f
10:48am 21 28 mph 1016.3mb 48f 63f
10:42am 20 28 mph 1016.3mb 48f 63f
10:36am 17 25 mph 1016.3mb 48f 63f
10:30am 16 22 mph 1016.3mb 48f 63f
10:24am 15 25 mph 1016.3mb 48f 63f
10:18am 13 22 mph 1016.3mb 48f 64f
10:12am 13 24 mph 1016.4mb 48f 64f
10:06am 13 22 mph 1016.4mb 48f 63f
10:00am 14 23 mph 1016.5mb 48f 63f
9:54am 15 23 mph 1016.5mb 48f 63f
9:48am 16 25 mph 1016.4mb 48f 63f
9:42am 15 23 mph 1016.3mb 48f 63f
9:36am 16 25 mph 1016.3mb 48f 63f
9:30am 13 18 mph 1016.3mb 47f 63f
9:24am 15 24 mph 1016.4mb 47f 63f
9:18am 16 22 mph 1016.5mb 47f 63f
9:12am 11 18 mph 1016.5mb 47f 63f
9:06am 14 20 mph 1016.5mb 47f 63f
9:00am 14 20 mph 1016.5mb 47f 63f
8:54am 11 20 mph 1016.5mb 47f 62f
8:48am 11 18 mph 1016.5mb 47f 62f
8:42am 11 22 mph 1016.5mb 47f 62f
8:36am 15 21 mph 1016.6mb 47f 61f
8:30am 10 16 mph 1016.6mb 47f 62f
8:24am 10 16 mph 1016.6mb 47f 61f
8:18am 9 14 mph 1016.7mb 47f 61f
8:12am 13 17 mph 1016.7mb 47f 61f
8:06am 10 17 mph 1016.7mb 47f 60f
8:00am 11 17 mph 1016.7mb 47f 60f
7:54am 13 17 mph 1016.7mb 47f 60f
7:48am 10 16 mph 1016.7mb 47f 59f
7:42am 8 15 mph 1016.6mb 47f 59f
7:36am 10 15 mph 1016.5mb 47f 59f
7:30am 11 17 mph 1016.5mb 47f 58f
7:24am 11 17 mph 1016.5mb 47f 58f
7:18am 16 22 mph 1016.4mb 47f 58f
7:12am 13 18 mph 1016.5mb 47f 58f
7:06am 13 18 mph 1016.4mb 47f 58f
7:00am 11 18 mph 1016.5mb 47f 57f
6:54am 14 18 mph 1016.5mb 47f 58f
6:48am 11 20 mph 1016.5mb 47f 57f
6:42am 13 20 mph 1016.5mb 47f 57f
6:36am 10 17 mph 1016.5mb 47f 57f
6:30am 14 20 mph 1016.4mb 47f 57f
6:24am 14 17 mph 1016.4mb 47f 57f
6:18am 13 21 mph 1016.3mb 47f 57f
6:12am 13 17 mph 1016.4mb 47f 56f
6:06am 11 17 mph 1016.3mb 47f 56f
6:00am 13 21 mph 1016.4mb 47f 56f
5:54am 13 17 mph 1016.5mb 47f 56f
5:48am 13 20 mph 1016.4mb 47f 56f
5:42am 11 17 mph 1016.3mb 47f 56f
5:36am 11 15 mph 1016.3mb 47f 56f
5:30am 11 15 mph 1016.3mb 47f 56f
5:24am 13 21 mph 1016.4mb 47f 56f
5:18am 13 16 mph 1016.3mb 47f 56f
5:12am 13 18 mph 1016.3mb 47f 56f
5:06am 11 16 mph 1016.2mb 47f 57f
5:00am 11 16 mph 1016.3mb 47f 57f
4:54am 13 16 mph 1016.3mb 47f 57f
4:48am 11 16 mph 1016.2mb 47f 57f
4:42am 11 14 mph 1016.2mb 47f 57f
4:36am 10 16 mph 1016.2mb 47f 57f
4:30am 11 16 mph 1016.2mb 47f 56f
4:24am 11 17 mph 1016.1mb 47f 56f
4:18am 13 20 mph 1016.1mb 47f 56f
4:12am 13 15 mph 1016.1mb 47f 56f
4:06am 13 17 mph 1016.1mb 47f 56f
4:00am 13 20 mph 1016.1mb 47f 56f
3:54am 14 17 mph 1016.2mb 47f 56f
3:48am 14 18 mph 1016.3mb 47f 56f
3:42am 14 18 mph 1016.3mb 47f 56f
3:36am 14 17 mph 1016.4mb 47f 57f
3:30am 13 17 mph 1016.5mb 47f 57f
3:24am 13 16 mph 1016.6mb 47f 57f
3:18am 13 16 mph 1016.7mb 47f 57f
3:12am 14 17 mph 1016.7mb 47f 57f
3:06am 14 18 mph 1016.7mb 47f 57f
3:00am 14 17 mph 1016.7mb 47f 57f
2:54am 14 21 mph 1016.8mb 47f 57f
2:48am 15 20 mph 1016.8mb 47f 57f
2:42am 14 22 mph 1016.8mb 47f 57f
2:36am 14 17 mph 1016.8mb 47f 57f
2:30am 13 17 mph 1017mb 47f 57f
2:24am 11 16 mph 1017mb 47f 57f
2:18am 10 16 mph 1017.1mb 47f 57f
2:12am 11 17 mph 1017.1mb 47f 57f
2:06am 11 15 mph 1017.2mb 47f 57f
2:00am 10 14 mph 1017.2mb 47f 57f
1:54am 10 14 mph 1017.3mb 47f 57f
1:48am 10 15 mph 1017.4mb 47f 57f
1:42am 11 16 mph 1017.5mb 47f 57f
1:36am 11 16 mph 1017.6mb 47f 57f
1:30am 11 16 mph 1017.6mb 47f 57f
1:24am 11 15 mph 1017.7mb 47f 57f
1:18am 14 17 mph 1017.8mb 47f 58f
1:12am 11 17 mph 1017.9mb 47f 58f
1:06am 9 17 mph 1017.8mb 47f 58f
1:00am 11 17 mph 1017.9mb 47f 58f
12:54am 13 16 mph 1018mb 47f 58f
12:48am 10 14 mph 1018mb 47f 58f
12:42am 10 15 mph 1018.1mb 47f 58f
12:36am 10 16 mph 1018.1mb 47f 58f
12:30am 9 16 mph 1018.2mb 47f 58f
12:24am 9 17 mph 1018.2mb 47f 58f
12:18am 10 17 mph 1018.3mb 47f 58f
12:12am 13 20 mph 1018.3mb 47f 58f
12:06am 11 20 mph 1018.3mb 47f 58f
12:00am 14 16 mph 1018.4mb 47f 58f
Sat 07/23 11:54pm 11 15 mph 1018.5mb 47f 58f
11:48pm 14 18 mph 1018.6mb 47f 59f
11:42pm 11 16 mph 1018.7mb 47f 59f
11:36pm 10 17 mph 1018.7mb 47f 59f
11:30pm 13 17 mph 1018.7mb 47f 59f
11:24pm 13 17 mph 1018.8mb 47f 59f
11:18pm 14 20 mph 1018.9mb 47f 59f
11:12pm 10 16 mph 1018.9mb 47f 59f
11:06pm 13 20 mph 1019mb 47f 59f
11:00pm 13 20 mph 1019.1mb 47f 60f
10:54pm 13 18 mph 1019.2mb 47f 60f
10:48pm 9 18 mph 1019.3mb 47f 60f
10:42pm 13 16 mph 1019.4mb 47f 60f
10:36pm 9 15 mph 1019.4mb 47f 60f
10:30pm 10 16 mph 1019.4mb 47f 60f
10:24pm 8 17 mph 1019.5mb 47f 60f
10:18pm 8 16 mph 1019.5mb 48f 60f
10:12pm 9 15 mph 1019.6mb 48f 60f
10:06pm 8 16 mph 1019.5mb 48f 60f
10:00pm 11 18 mph 1019.6mb 48f 61f
9:54pm 10 22 mph 1019.5mb 48f 61f
9:48pm 9 14 mph 1019.5mb 48f 61f
9:42pm 9 18 mph 1019.4mb 48f 61f
9:36pm 10 20 mph 1019.4mb 48f 61f
9:30pm 13 18 mph 1019.3mb 48f 61f
9:24pm 15 25 mph 1019.4mb 48f 61f
9:18pm 10 20 mph 1019.4mb 48f 61f
9:12pm 10 18 mph 1019.3mb 48f 61f
9:06pm 11 18 mph 1019.4mb 48f 61f
9:00pm 11 22 mph 1019.3mb 48f 61f
8:54pm 13 22 mph 1019.3mb 48f 61f
8:48pm 14 24 mph 1019.3mb 48f 61f
8:42pm 15 22 mph 1019.3mb 48f 61f
8:36pm 13 21 mph 1019.3mb 48f 61f
8:30pm 13 20 mph 1019.4mb 48f 61f
8:24pm 11 21 mph 1019.4mb 48f 61f
8:18pm 15 23 mph - 48f 61f
8:12pm 14 21 mph - 48f 61f
8:06pm 13 22 mph - 48f 61f
8:00pm  -  mph - 48f 62f
7:54pm  -  mph - 48f 62f
7:48pm 16 26 mph 1019.2mb - -
7:42pm 17 26 mph 1019.2mb - -
7:36pm 16 29 mph 1019.1mb - -
7:30pm 16 25 mph 1019.2mb - -
7:24pm 17 32 mph 1019.2mb - -
7:18pm  -  mph 1019.2mb 48f 62f
7:12pm  -  mph 1019.2mb 48f 63f
7:06pm  -  mph 1019.4mb 48f 63f
7:00pm  -  mph - 48f 63f
6:54pm  -  mph - 48f 63f
6:48pm  -  mph - 48f -
6:42pm  -  mph - 48f -
6:36pm  -  mph - 48f -
6:30pm 14 26 mph - - -
6:24pm 15 24 mph - - -
6:18pm 17 26 mph - 49f -
6:12pm 15 26 mph - 49f -
6:06pm 14 28 mph - 49f -
6:00pm  -  mph - 49f 65f
5:54pm  -  mph - 49f 65f
5:48pm 21 28 mph 1019.8mb - -
5:42pm 20 28 mph 1019.8mb - -
5:36pm 22 30 mph 1019.8mb - -
5:30pm 20 33 mph - - -
5:24pm 18 32 mph - - -
5:18pm 18 31 mph 1020.2mb 49f -
5:12pm 21 37 mph 1020.3mb 49f -
5:06pm 18 31 mph 1020.2mb 49f -
5:00pm  -  mph - 49f -
4:54pm  -  mph - 49f -
4:48pm 17 30 mph - - -
4:42pm 22 36 mph - - -
4:36pm 18 29 mph - - -
4:30pm 23 32 mph - - -
4:24pm 17 29 mph - - -
4:18pm 17 28 mph 1020.6mb 49f 65f
4:12pm 23 32 mph 1020.6mb 49f 65f
4:06pm 16 31 mph 1020.5mb 48f 65f
4:00pm  -  mph - 48f 65f
3:54pm  -  mph - 48f 65f
3:48pm  -  mph - 48f 65f
3:42pm  -  mph - 48f 66f
3:36pm  -  mph - 48f 66f
3:30pm 20 38 mph - - -
3:24pm 18 32 mph - - -
3:18pm  -  mph - 48f -
3:12pm  -  mph - 48f -
3:06pm  -  mph - 48f -
3:00pm  -  mph - 48f -
2:54pm  -  mph - 48f -
2:48pm 18 32 mph 1020.6mb - 66f
2:42pm 21 33 mph 1020.6mb - 66f
2:36pm 21 33 mph 1020.7mb - 66f
2:30pm 20 33 mph 1020.7mb 48f 66f
2:24pm 18 34 mph 1020.7mb 47f 66f
2:18pm 18 34 mph 1020.7mb 48f 66f
2:12pm 18 30 mph 1020.8mb 48f 66f
2:06pm 20 28 mph 1020.9mb 48f 67f
2:00pm 17 29 mph 1020.8mb 48f 67f
1:54pm 17 29 mph 1021mb 48f 66f
1:48pm 20 36 mph 1021mb 48f 66f
1:42pm 21 30 mph 1021mb 47f 66f
1:36pm 21 33 mph 1020.9mb 47f 66f
1:30pm 17 32 mph 1021mb 48f 66f
1:24pm 18 30 mph 1021mb 48f 66f
1:18pm 17 25 mph 1021.1mb 48f 66f
1:12pm 16 24 mph 1021.2mb 48f 67f
1:06pm 21 29 mph 1021.1mb 48f 66f
1:00pm 17 26 mph 1021.2mb 48f 66f
12:54pm 17 26 mph 1021.2mb 48f 66f
12:48pm 21 29 mph 1021.2mb 48f 66f
12:42pm 20 31 mph 1021.3mb 48f 66f
12:36pm 17 28 mph 1021.4mb 48f 66f
12:30pm 16 24 mph 1021.4mb 48f 66f
12:24pm 16 25 mph 1021.5mb 48f 66f
12:18pm 15 22 mph 1021.5mb 48f 66f
12:12pm 16 23 mph 1021.5mb 48f 66f
12:06pm 14 26 mph 1021.6mb 48f 66f
12:00pm 14 25 mph 1021.6mb 48f 66f
11:54am 16 25 mph 1021.7mb 48f 66f
11:48am 14 26 mph 1021.7mb 48f 66f
11:42am 17 24 mph 1021.8mb 48f 66f
11:36am 15 29 mph 1021.8mb 48f 66f
11:30am 17 25 mph 1021.8mb 48f 66f
11:24am 14 25 mph 1021.9mb 48f 66f
11:18am 15 24 mph 1021.9mb 48f 66f
11:12am 16 23 mph 1021.9mb 48f 66f
11:06am 14 24 mph 1021.9mb 48f 66f
11:00am 17 23 mph 1022mb 48f 66f
10:54am 14 23 mph 1021.9mb 48f 66f
10:48am 15 24 mph 1021.9mb 49f 66f
10:42am 16 22 mph 1021.9mb 48f 66f
10:36am 14 24 mph 1022mb 48f 66f
10:30am 15 20 mph 1022mb 48f 66f
10:24am 14 18 mph 1022mb 48f 66f
10:18am 11 22 mph 1022.1mb 48f 66f
10:12am 11 21 mph 1022mb 48f 66f
10:06am 11 17 mph 1022mb 48f 66f
10:00am 9 18 mph 1022mb 48f 66f
9:54am 13 16 mph 1022.2mb 48f 65f
9:48am 14 17 mph 1022.2mb 48f 65f
9:42am 11 18 mph 1022.2mb 48f 66f
9:36am 10 21 mph 1022.2mb 48f 65f
9:30am 13 18 mph 1022.2mb 48f 65f
9:24am 10 17 mph 1022.1mb 48f 65f
9:18am 13 17 mph 1022.1mb 48f 65f
9:12am 11 18 mph 1022.2mb 48f 64f
9:06am 14 18 mph 1022.2mb 48f 63f
9:00am 9 16 mph 1022.1mb 48f 63f
8:54am 11 15 mph 1022.1mb 48f 63f
8:48am 10 14 mph 1022.1mb 48f 63f
8:42am 11 16 mph 1022.1mb 48f 62f
8:36am 14 17 mph 1022.1mb 48f 62f
8:30am 11 18 mph 1022.1mb 48f 62f
8:24am 14 20 mph 1022.2mb 48f 61f
8:18am 11 15 mph 1022.1mb 48f 61f
8:12am 9 20 mph 1022.1mb 48f 61f
8:06am 14 20 mph 1022.1mb 47f 61f
8:00am 14 22 mph 1022mb 47f 61f
7:54am 14 20 mph 1022mb 47f 61f
7:48am 13 17 mph 1021.9mb 47f 60f
7:42am 14 20 mph 1021.9mb 47f 60f
7:36am 11 15 mph 1021.9mb 47f 60f
7:30am 9 16 mph 1021.9mb 47f 60f
7:24am 7 14 mph 1021.9mb 47f 59f
7:18am 10 16 mph 1021.9mb 47f 59f
7:12am 9 15 mph 1021.9mb 47f 59f
7:06am 9 13 mph 1022mb 47f 59f
7:00am 9 11 mph 1022.1mb 47f 58f
6:54am 9 14 mph 1022.1mb 47f 57f
6:48am 6 11 mph 1022.1mb 47f 57f
6:42am 6 9 mph 1022.1mb 47f 57f
6:36am 8 11 mph 1022mb 47f 56f
6:30am 9 13 mph 1022mb 47f 56f
6:24am 9 11 mph 1022mb 47f 56f
6:18am 8 10 mph 1021.9mb 47f 56f
6:12am 8 13 mph 1022mb 48f 56f
6:06am 8 10 mph 1021.9mb 48f 56f
6:00am 8 11 mph 1021.9mb 48f 56f
5:54am 9 14 mph 1021.9mb 48f 56f
5:48am 9 13 mph 1021.9mb 48f 56f
5:42am 9 11 mph 1021.9mb 48f 56f
5:36am 11 13 mph 1021.8mb 48f 56f
5:30am 11 14 mph 1021.7mb 48f 56f
5:24am 10 14 mph 1021.7mb 48f 56f
5:18am 9 13 mph 1021.7mb 47f 56f
5:12am 10 13 mph 1021.7mb 48f 56f
5:06am 7 9 mph 1021.7mb 48f 56f
5:00am 7 11 mph 1021.8mb 47f 56f
4:54am 9 14 mph 1021.9mb 47f 56f
4:48am 6 11 mph 1021.9mb 47f 56f
4:42am 7 10 mph 1021.9mb 47f 56f
4:36am 7 11 mph 1021.9mb 47f 56f
4:30am 7 13 mph 1021.9mb 47f 56f
4:24am 7 11 mph 1021.9mb 47f 56f
4:18am 9 14 mph 1021.9mb 47f 56f
4:12am 8 11 mph 1021.9mb 47f 56f
4:06am 10 17 mph 1022mb 47f 57f
4:00am 9 15 mph 1022mb 47f 57f
3:54am 9 14 mph 1021.9mb 47f 57f
3:48am 8 13 mph 1021.9mb 47f 57f
3:42am 8 11 mph 1021.8mb 47f 57f
3:36am 8 11 mph 1021.9mb 47f 57f
3:30am 8 13 mph 1021.9mb 47f 57f
3:24am 10 14 mph 1022mb 47f 57f
3:18am 9 13 mph 1022.1mb 47f 57f
3:12am 9 14 mph 1022.2mb 48f 57f
3:06am 10 16 mph 1022.2mb 48f 57f
3:00am 9 15 mph 1022.3mb 48f 57f
2:54am 9 13 mph 1022.4mb 48f 58f
2:48am 7 13 mph 1022.4mb 48f 58f
2:42am 8 14 mph 1022.5mb 48f 58f
2:36am 8 13 mph 1022.5mb 48f 58f
2:30am 9 13 mph 1022.6mb 48f 58f
2:24am 8 11 mph 1022.7mb 48f 58f
2:18am 8 13 mph 1022.7mb 48f 58f
2:12am 9 14 mph 1022.7mb 48f 58f
2:06am 8 14 mph 1022.8mb 48f 58f
2:00am 8 11 mph 1022.8mb 48f 58f
1:54am 9 15 mph 1022.8mb 48f 58f
1:48am 8 11 mph 1022.9mb 48f 58f
1:42am 9 13 mph 1022.8mb 48f 58f
1:36am 7 11 mph 1022.9mb 48f 58f
1:30am 9 14 mph 1022.9mb 48f 58f
1:24am 9 11 mph 1023mb 48f 58f
1:18am 9 13 mph 1023.1mb 48f 58f
1:12am 9 11 mph 1023.1mb 48f 59f
1:06am 8 13 mph 1023.2mb 48f 58f
1:00am 9 14 mph 1023.3mb 48f 59f
12:54am 10 13 mph 1023.3mb 48f 59f
12:48am 9 14 mph 1023.3mb 48f 59f
12:42am 10 16 mph 1023.4mb 48f 59f
12:36am 9 13 mph 1023.5mb 48f 59f
12:30am 9 15 mph 1023.6mb 48f 59f
12:24am 10 14 mph 1023.6mb 48f 59f
12:18am 9 11 mph 1023.6mb 48f 59f
12:12am 9 14 mph 1023.7mb 48f 60f
12:06am 9 14 mph 1023.7mb 48f 60f
12:00am 8 14 mph 1023.8mb 48f 60f
Fri 07/22 11:54pm 10 15 mph 1023.8mb 48f 60f
11:48pm 9 14 mph 1023.9mb 48f 60f
11:42pm 11 15 mph 1023.9mb 48f 60f
11:36pm 9 14 mph 1024mb 48f 60f
11:30pm 10 14 mph 1024mb 49f 60f
11:24pm 9 13 mph 1024.1mb 49f 60f
11:18pm 10 15 mph 1024.1mb 49f 60f
11:12pm 7 9 mph 1024.1mb 49f 60f
11:06pm 8 11 mph 1024.2mb 49f 60f
11:00pm 8 11 mph 1024.2mb 49f 60f
10:54pm 9 13 mph 1024.3mb 49f 60f
10:48pm 9 14 mph 1024.3mb 49f 60f
10:42pm 8 13 mph 1024.4mb 49f 61f
10:36pm 7 11 mph 1024.4mb 49f 61f
10:30pm 9 14 mph 1024.4mb 49f 61f
10:24pm 9 15 mph 1024.4mb 49f 61f
10:18pm 10 15 mph 1024.4mb 49f 61f
10:12pm 10 17 mph 1024.4mb 49f 61f
10:06pm 13 16 mph 1024.4mb 49f 61f
10:00pm 14 20 mph 1024.4mb 49f 62f
9:54pm 13 16 mph 1024.4mb 49f 62f
9:48pm 15 22 mph 1024.4mb 49f 62f
9:42pm 14 18 mph 1024.3mb 49f 61f
9:36pm 14 20 mph 1024.3mb 49f 61f
9:30pm 15 24 mph 1024.4mb 49f 61f
9:24pm 11 15 mph 1024.3mb 49f 61f
9:18pm 13 16 mph 1024.3mb 49f 61f
9:12pm 10 15 mph 1024.2mb 49f 61f
9:06pm 10 15 mph 1024.1mb 49f 61f
9:00pm 10 21 mph - 49f 61f
8:54pm 11 22 mph - 49f 61f
8:48pm 15 20 mph 1024.1mb 49f 61f
8:42pm 16 25 mph 1024mb 49f 61f
8:36pm 15 21 mph 1024mb 49f 61f
8:30pm 15 23 mph 1024.1mb 49f 62f
8:24pm 17 26 mph 1024.2mb 49f 62f
8:18pm 13 26 mph 1024.1mb 50f 62f
8:12pm 14 25 mph 1024.1mb 50f 62f
8:06pm 14 25 mph 1024.1mb 50f 62f
8:00pm  -  mph - 50f 62f
7:54pm  -  mph - 50f 62f
7:48pm 18 28 mph - - -
7:42pm 15 26 mph - - -
7:36pm 16 30 mph - - -
7:30pm 17 24 mph - 50f -
7:24pm 16 25 mph - 50f -
7:18pm 14 28 mph - 50f 63f
7:12pm 17 28 mph - 50f 63f
7:06pm 17 25 mph - 49f 63f
7:00pm 20 33 mph - 49f 63f
6:54pm 14 29 mph - 49f 64f
6:48pm 15 26 mph - - -
6:42pm 15 31 mph - - -
6:36pm 23 32 mph - - -
6:30pm 17 26 mph - 49f -
6:24pm 18 30 mph - 49f -
6:18pm 16 30 mph 1024mb 50f -
6:12pm 15 26 mph 1024mb 49f -
6:06pm 21 29 mph 1024.1mb 50f -
6:00pm  -  mph - 50f 64f
5:54pm  -  mph - 50f 64f
5:48pm 22 32 mph - - -
5:42pm 20 32 mph - - -
5:36pm 20 34 mph - - -
5:30pm 17 29 mph - - 64f
5:24pm 18 31 mph - - 65f
5:18pm  -  mph - 50f -
5:12pm  -  mph - 50f -
5:06pm  -  mph - 50f -
5:00pm  -  mph - - 65f
4:54pm  -  mph - - 65f
4:48pm 17 29 mph - 50f -
4:42pm 16 31 mph - 50f -
4:36pm 18 33 mph - 50f -
4:30pm 20 29 mph - 50f -
4:24pm 14 25 mph - 50f -
4:18pm 16 29 mph - 50f -
4:12pm 21 32 mph - 50f -
4:06pm 17 30 mph - 50f -
4:00pm 18 28 mph - 50f -
3:54pm 14 29 mph - 50f -
3:48pm 20 31 mph - 50f -
3:42pm 21 30 mph - 50f -
3:36pm 20 31 mph - 50f -
3:30pm 18 30 mph - 50f 66f
3:24pm 17 28 mph - 50f 67f
3:18pm  -  mph - 50f 66f
3:12pm  -  mph - 50f 67f
3:06pm  -  mph - 50f 66f
3:00pm  -  mph - 50f -
2:54pm  -  mph - 50f -
2:48pm 17 29 mph - 50f 66f
2:42pm 17 24 mph - 51f 66f
2:36pm 14 25 mph - 51f 67f
2:30pm 15 29 mph 1024.4mb 50f 66f
2:24pm 18 30 mph 1024.5mb 50f 66f
2:18pm 16 29 mph 1024.7mb 50f 66f
2:12pm 21 29 mph 1024.6mb 50f 66f
2:06pm 16 29 mph 1024.7mb 50f 66f
2:00pm 16 25 mph 1024.7mb 51f 66f
1:54pm 16 29 mph 1024.6mb 51f 67f
1:48pm 17 26 mph 1024.6mb 51f 67f
1:42pm 20 33 mph 1024.7mb 51f 66f
1:36pm 20 29 mph 1024.7mb 51f 66f
1:30pm 22 30 mph 1024.7mb 51f 66f
1:24pm 14 22 mph 1024.6mb 51f 67f
1:18pm 15 26 mph 1024.7mb 51f 67f
1:12pm 10 25 mph 1024.6mb 51f 67f
1:06pm 11 22 mph 1024.6mb 51f 67f
1:00pm 14 25 mph 1024.5mb 51f 67f
12:54pm 14 28 mph 1024.5mb 51f 67f
12:48pm 15 25 mph 1024.7mb 51f 67f
12:42pm 18 29 mph 1024.5mb 51f 67f
12:36pm 17 26 mph 1024.6mb 51f 67f
12:30pm 15 25 mph 1024.5mb 51f 67f
12:24pm 13 26 mph 1024.6mb 51f 67f
12:18pm 15 28 mph 1024.5mb 51f 67f
12:12pm 16 25 mph 1024.5mb 51f 67f
12:06pm 16 25 mph 1024.5mb 52f 67f
12:00pm 16 28 mph 1024.5mb 51f 67f
11:54am 16 23 mph 1024.6mb 51f 67f
11:48am 15 24 mph 1024.5mb 51f 67f
11:42am 17 26 mph 1024.4mb 51f 67f
11:36am 15 24 mph 1024.4mb 52f 67f
11:30am 14 22 mph 1024.3mb 51f 67f
11:24am 14 20 mph 1024.3mb 52f 67f
11:18am 13 22 mph 1024.5mb 53f 67f
11:12am 16 23 mph 1024.5mb 53f 67f
11:06am 11 24 mph 1024.6mb 52f 67f
11:00am 11 16 mph 1024.5mb 52f 67f
10:54am 11 21 mph 1024.5mb 52f 67f
10:48am 10 18 mph 1024.5mb 51f 67f
10:42am 13 18 mph 1024.5mb 51f 67f
10:36am 11 20 mph 1024.5mb 51f 67f
10:30am 10 18 mph 1024.4mb 51f 67f
10:24am 15 18 mph 1024.4mb 51f 67f
10:18am 15 20 mph 1024.4mb 51f 66f
10:12am 14 18 mph 1024.4mb 51f 67f
10:06am 16 21 mph 1024.4mb 51f 66f
10:00am 15 20 mph 1024.4mb 52f 66f
9:54am 15 22 mph 1024.4mb 51f 66f
9:48am 8 17 mph 1024.4mb 51f 66f
9:42am 13 17 mph 1024.5mb 52f 65f
9:36am 11 16 mph 1024.4mb 52f 65f
9:30am 7 15 mph 1024.4mb 52f 65f
9:24am 8 15 mph 1024.4mb 52f 65f
9:18am 7 15 mph 1024.4mb 51f 65f
9:12am 10 16 mph 1024.5mb 51f 64f
9:06am 9 15 mph 1024.4mb 51f 64f
9:00am 11 16 mph 1024.4mb 51f 63f
8:54am 8 14 mph 1024.4mb 52f 63f
8:48am 8 13 mph 1024.6mb 52f 63f
8:42am 8 13 mph 1024.6mb 51f 63f
8:36am 9 13 mph 1024.5mb 51f 63f
8:30am 7 10 mph 1024.6mb 51f 63f
8:24am 5 10 mph 1024.6mb 51f 63f
8:18am 7 10 mph 1024.5mb 52f 62f
8:12am 8 11 mph 1024.4mb 51f 62f
8:06am 7 9 mph 1024.4mb 51f 62f
8:00am  -  mph 1024.5mb 51f 61f
7:54am  -  mph 1024.3mb 51f 61f
7:48am 8 14 mph 1024.4mb 51f 61f
7:42am 7 10 mph 1024.4mb 51f 60f
7:36am 7 11 mph 1024.3mb 51f 60f
7:30am 6 8 mph 1024.3mb 51f 60f
7:24am 6 9 mph 1024.3mb 51f 59f
7:18am 6 10 mph 1024.2mb 51f 59f
7:12am 8 10 mph 1024.2mb 51f 59f
7:06am 8 11 mph 1024.2mb 51f 59f
7:00am 6 9 mph 1024.1mb 51f 59f
6:54am 8 11 mph 1024.1mb 51f 59f